Time;durP1;ratioP1;P1;durP2;ratioP2;P2;SDS_P1;SDS_P2;PMS_P1;PMS_P2;Temp;Humidity;BMP_temperature;BMP_pressure;BME280_temperature;BME280_humidity;BME280_pressure;Samples;Min_cycle;Max_cycle;Signal;HPM_P1;HPM_P2
2023/09/05 00:02:21;;;;;;;0.20;0.20;;;;;;;19.62;73.98;101570.91;4958236;28;20031;-92
2023/09/05 00:04:47;;;;;;;0.20;0.20;;;;;;;19.63;73.89;101564.69;4958027;28;20026;-93
2023/09/05 00:07:13;;;;;;;0.10;0.10;;;;;;;19.58;74.11;101566.81;4957900;28;20030;-92
2023/09/05 00:09:39;;;;;;;0.20;0.20;;;;;;;19.47;73.48;101537.88;4957284;28;20477;-92
2023/09/05 00:12:05;;;;;;;0.10;0.10;;;;;;;19.53;73.51;101545.28;4973821;28;20035;-93
2023/09/05 00:14:30;;;;;;;0.10;0.10;;;;;;;19.48;73.48;101550.88;4973802;28;20513;-93
2023/09/05 00:16:55;;;;;;;0.20;0.20;;;;;;;19.58;73.56;101572.06;4973886;28;20034;-93
2023/09/05 00:19:21;;;;;;;0.10;0.10;;;;;;;19.49;73.95;101564.81;4941055;28;20493;-93
2023/09/05 00:21:46;;;;;;;0.10;0.10;;;;;;;19.51;73.95;101580.47;4957588;28;20077;-93
2023/09/05 00:24:31;;;;;;;0.10;0.10;;;;;;;19.46;73.96;101572.91;4941244;28;20031;-93
2023/09/05 00:27:00;;;;;;;0.10;0.10;;;;;;;19.49;74.25;101588.44;4957859;28;20027;-94
2023/09/05 00:29:30;;;;;;;0.20;0.20;;;;;;;19.46;74.42;101581.59;4957462;28;20037;-93
2023/09/05 00:31:59;;;;;;;0.20;0.20;;;;;;;19.40;75.00;101579.44;4958077;28;20042;-92
2023/09/05 00:34:26;;;;;;;0.10;0.10;;;;;;;19.41;75.17;101586.34;4957818;28;20033;-94
2023/09/05 00:36:52;;;;;;;0.10;0.10;;;;;;;19.45;74.73;101600.09;4957258;28;20088;-94
2023/09/05 00:39:18;;;;;;;0.20;0.20;;;;;;;19.36;75.04;101590.25;4957144;28;20035;-92
2023/09/05 00:41:43;;;;;;;0.20;0.20;;;;;;;19.43;74.89;101594.13;4941121;28;20041;-92
2023/09/05 00:44:09;;;;;;;0.20;0.20;;;;;;;19.51;74.64;101591.78;4957238;28;20046;-93
2023/09/05 00:46:34;;;;;;;0.10;0.10;;;;;;;19.29;75.34;101575.91;4957271;28;20038;-93
2023/09/05 00:49:03;;;;;;;0.20;0.20;;;;;;;19.49;74.78;101596.31;4957104;28;20042;-93
2023/09/05 00:51:32;;;;;;;0.20;0.20;;;;;;;19.43;75.26;101600.22;4958083;28;20042;-92
2023/09/05 00:54:01;;;;;;;0.20;0.20;;;;;;;19.39;75.65;101606.63;4956701;28;20030;-93
2023/09/05 00:56:27;;;;;;;0.20;0.20;;;;;;;19.42;75.48;101608.19;4957032;28;20120;-93
2023/09/05 00:58:53;;;;;;;0.17;0.17;;;;;;;19.37;75.95;101605.91;4989215;28;20029;-93
2023/09/05 01:01:18;;;;;;;0.20;0.20;;;;;;;19.39;75.91;101608.41;4957045;28;20031;-93
2023/09/05 01:03:44;;;;;;;0.10;0.10;;;;;;;19.20;76.75;101588.72;4956857;28;20031;-92
2023/09/05 01:06:14;;;;;;;0.20;0.20;;;;;;;19.30;77.00;101593.31;4972776;28;20041;-94
2023/09/05 01:08:47;;;;;;;0.20;0.20;;;;;;;19.32;76.82;101591.41;4956804;28;20140;-92
2023/09/05 01:11:14;;;;;;;0.10;0.10;;;;;;;19.23;77.13;101579.78;4956473;28;20026;-93
2023/09/05 01:13:41;;;;;;;0.20;0.20;;;;;;;19.25;77.14;101582.28;4957309;28;20051;-92
2023/09/05 01:16:08;;;;;;;0.10;0.10;;;;;;;19.24;77.06;101573.59;4956636;28;20484;-92
2023/09/05 01:18:34;;;;;;;0.20;0.20;;;;;;;19.38;76.61;101577.88;4956556;28;20089;-93
2023/09/05 01:21:21;;;;;;;0.10;0.10;;;;;;;19.38;76.99;101580.50;4956479;28;20041;-92
2023/09/05 01:23:57;;;;;;;0.10;0.10;;;;;;;19.36;77.10;101585.00;4973442;28;20193;-93
2023/09/05 01:26:23;;;;;;;0.10;0.10;;;;;;;19.34;77.38;101589.53;4957314;28;20126;-92
2023/09/05 01:28:49;;;;;;;0.20;0.20;;;;;;;19.34;77.27;101579.03;4956177;28;20086;-93
2023/09/05 01:31:15;;;;;;;0.20;0.20;;;;;;;19.45;77.01;101589.59;4940465;28;20129;-92
2023/09/05 01:33:41;;;;;;;0.20;0.20;;;;;;;19.35;77.56;101581.53;4940235;28;20031;-92
2023/09/05 01:36:06;;;;;;;0.20;0.20;;;;;;;19.44;77.17;101582.66;4972081;28;20026;-93
2023/09/05 01:38:33;;;;;;;0.10;0.10;;;;;;;19.43;77.37;101589.72;4955719;28;20036;-92
2023/09/05 01:40:58;;;;;;;0.20;0.20;;;;;;;19.41;77.32;101590.78;4956322;28;20036;-92
2023/09/05 01:43:24;;;;;;;0.20;0.20;;;;;;;19.40;77.40;101592.56;4956108;28;20031;-92
2023/09/05 01:45:49;;;;;;;0.20;0.20;;;;;;;19.31;78.26;101600.25;4956163;28;20034;-93
2023/09/05 01:48:14;;;;;;;0.20;0.20;;;;;;;19.29;78.32;101595.09;4955947;28;20031;-92
2023/09/05 01:50:40;;;;;;;0.20;0.20;;;;;;;19.31;78.60;101605.50;4939759;28;20489;-92
2023/09/05 01:53:05;;;;;;;0.10;0.10;;;;;;;19.27;78.73;101599.63;4956013;28;20031;-92
2023/09/05 01:55:31;;;;;;;0.10;0.10;;;;;;;19.40;77.95;101615.34;4955809;28;20034;-93
2023/09/05 01:57:56;;;;;;;0.20;0.20;;;;;;;19.32;78.67;101612.41;4955977;28;20033;-92
2023/09/05 02:00:22;;;;;;;0.10;0.10;;;;;;;19.19;79.13;101600.16;4955858;28;20035;-93
2023/09/05 02:02:47;;;;;;;0.20;0.20;;;;;;;19.28;79.23;101605.72;4971759;28;20082;-92
2023/09/05 02:05:13;;;;;;;0.10;0.10;;;;;;;19.38;78.59;101609.38;4955663;28;20057;-92
2023/09/05 02:07:38;;;;;;;0.10;0.10;;;;;;;19.34;78.21;101613.13;4955817;28;20027;-92
2023/09/05 02:10:06;;;;;;;0.20;0.20;;;;;;;19.28;79.09;101605.72;4955844;28;20042;-93
2023/09/05 02:12:32;;;;;;;0.20;0.20;;;;;;;19.26;79.21;101615.44;4956318;28;20476;-92
2023/09/05 02:15:00;;;;;;;0.20;0.20;;;;;;;19.30;78.70;101619.56;4971993;28;20543;-93
2023/09/05 02:17:30;;;;;;;0.20;0.20;;;;;;;19.34;78.00;101621.84;4940333;28;20023;-92
2023/09/05 02:19:56;;;;;;;0.13;0.13;;;;;;;19.41;78.08;101638.84;4971140;28;20057;-94
2023/09/05 02:22:21;;;;;;;0.10;0.10;;;;;;;19.49;77.77;101640.94;4971887;28;20058;-92
2023/09/05 02:24:47;;;;;;;0.20;0.20;;;;;;;19.39;77.40;101624.16;4971954;28;20023;-92
2023/09/05 02:27:12;;;;;;;0.20;0.20;;;;;;;19.32;78.16;101628.16;4971599;28;20034;-93
2023/09/05 02:29:38;;;;;;;0.20;0.20;;;;;;;19.38;77.81;101630.34;4955538;28;20031;-93
2023/09/05 02:32:04;;;;;;;0.20;0.20;;;;;;;19.41;77.46;101632.75;4955601;28;20027;-93
2023/09/05 02:34:29;;;;;;;0.20;0.20;;;;;;;19.41;77.53;101635.38;4955482;28;20133;-93
2023/09/05 02:36:55;;;;;;;0.20;0.20;;;;;;;19.38;77.01;101622.47;4971707;28;20038;-92
2023/09/05 02:39:21;;;;;;;0.10;0.10;;;;;;;19.48;77.48;101636.63;4971959;28;20038;-94
2023/09/05 02:41:46;;;;;;;0.10;0.10;;;;;;;19.46;77.71;101635.88;4955718;28;20030;-94
2023/09/05 02:44:12;;;;;;;0.20;0.20;;;;;;;19.53;77.06;101642.38;4939538;28;20069;-93
2023/09/05 02:46:37;;;;;;;0.10;0.10;;;;;;;19.57;77.27;101643.91;4955507;28;20031;-93
2023/09/05 02:49:03;;;;;;;0.20;0.20;;;;;;;19.49;77.05;101625.19;4955175;28;20390;-93
2023/09/05 02:51:28;;;;;;;0.20;0.20;;;;;;;19.62;76.95;101641.78;4974333;28;20054;-92
2023/09/05 02:53:56;;;;;;;0.20;0.20;;;;;;;19.62;76.60;101641.78;4943253;28;20030;-89
2023/09/05 02:56:22;;;;;;;0.10;0.10;;;;;;;19.61;77.22;101645.34;4958714;28;20026;-89
2023/09/05 02:58:50;;;;;;;0.20;0.20;;;;;;;19.63;76.40;101648.69;4958380;28;20049;-90
2023/09/05 03:01:16;;;;;;;0.20;0.20;;;;;;;19.66;76.50;101637.97;4958026;28;20533;-89
2023/09/05 03:03:41;;;;;;;0.10;0.10;;;;;;;19.81;73.64;101650.97;4958364;28;20026;-91
2023/09/05 03:06:14;;;;;;;0.10;0.10;;;;;;;19.85;75.33;101637.50;4958523;28;20394;-91
2023/09/05 03:08:41;;;;;;;0.20;0.20;;;;;;;20.06;74.54;101643.00;4958495;28;20030;-89
2023/09/05 03:11:07;;;;;;;0.10;0.10;;;;;;;19.97;75.67;101641.03;4958612;28;20089;-90
2023/09/05 03:13:33;;;;;;;0.20;0.20;;;;;;;19.87;76.25;101635.63;4958131;28;20026;-90
2023/09/05 03:15:58;;;;;;;0.20;0.20;;;;;;;19.77;76.70;101630.19;4974290;28;20501;-92
2023/09/05 03:18:25;;;;;;;0.20;0.20;;;;;;;20.21;74.03;101628.72;4973609;28;20055;-91
2023/09/05 03:20:50;;;;;;;0.10;0.10;;;;;;;19.99;75.04;101620.75;4958269;28;20511;-90
2023/09/05 03:23:16;;;;;;;0.20;0.20;;;;;;;20.11;75.65;101637.41;4958236;28;20046;-92
2023/09/05 03:25:41;;;;;;;0.10;0.10;;;;;;;20.03;76.18;101640.59;4957818;28;20035;-90
2023/09/05 03:28:10;;;;;;;0.20;0.20;;;;;;;20.02;76.44;101634.50;4957726;28;20473;-90
2023/09/05 03:30:35;;;;;;;0.20;0.20;;;;;;;20.04;76.01;101637.00;4958259;28;20113;-90
2023/09/05 03:33:01;;;;;;;0.17;0.17;;;;;;;20.05;74.94;101623.75;4957665;28;20042;-89
2023/09/05 03:35:26;;;;;;;0.20;0.20;;;;;;;20.25;74.61;101635.44;4957910;28;20023;-91
2023/09/05 03:37:52;;;;;;;0.20;0.20;;;;;;;20.34;73.75;101637.38;4941692;28;20035;-90
2023/09/05 03:40:17;;;;;;;0.20;0.20;;;;;;;20.32;74.18;101641.91;4957763;28;20034;-91
2023/09/05 03:42:43;;;;;;;0.20;0.20;;;;;;;20.03;75.67;101640.59;4957421;28;20042;-90
2023/09/05 03:45:09;;;;;;;0.20;0.20;;;;;;;20.06;74.73;101632.50;4960140;28;20509;-91
2023/09/05 03:47:34;;;;;;;0.20;0.20;;;;;;;20.35;73.76;101653.97;4973348;28;20037;-88
2023/09/05 03:50:00;;;;;;;0.20;0.20;;;;;;;20.24;74.35;101651.31;4957009;28;20030;-88
2023/09/05 03:52:25;;;;;;;0.20;0.20;;;;;;;20.25;74.31;101645.94;4957049;28;20485;-88
2023/09/05 03:54:51;;;;;;;0.10;0.10;;;;;;;20.26;73.90;101645.00;4956621;28;20035;-89
2023/09/05 03:57:16;;;;;;;0.20;0.20;;;;;;;20.20;74.92;101642.00;4972481;28;20031;-87
2023/09/05 03:59:42;;;;;;;0.10;0.10;;;;;;;20.26;74.88;101652.91;4956624;28;20499;-87
2023/09/05 04:02:07;;;;;;;0.20;0.20;;;;;;;20.31;74.69;101650.75;4973371;28;20413;-86
2023/09/05 04:04:33;;;;;;;0.17;0.17;;;;;;;20.34;74.48;101647.06;4956583;28;20477;-87
2023/09/05 04:06:58;;;;;;;0.10;0.10;;;;;;;20.62;73.05;101653.75;4940474;28;20031;-88
2023/09/05 04:09:24;;;;;;;0.20;0.20;;;;;;;20.82;72.23;101660.16;4955901;28;20038;-88
2023/09/05 04:11:49;;;;;;;0.20;0.20;;;;;;;20.78;73.59;101654.28;4954312;28;20031;-88
2023/09/05 04:14:14;;;;;;;0.20;0.20;;;;;;;20.61;74.53;101657.34;4956045;28;20504;-88
2023/09/05 04:16:41;;;;;;;0.20;0.20;;;;;;;21.05;72.82;101656.63;4956157;28;20030;-88
2023/09/05 04:19:08;;;;;;;0.20;0.20;;;;;;;21.52;70.59;101659.16;4939663;28;20547;-87
2023/09/05 04:21:33;;;;;;;0.20;0.20;;;;;;;21.58;69.86;101653.41;4940637;28;20027;-87
2023/09/05 04:26:44;;;;;;;0.20;0.20;;;;;;;21.56;70.73;101677.25;4958040;28;20060;-87
2023/09/05 04:29:10;;;;;;;0.10;0.10;;;;;;;21.59;70.19;101660.34;4954048;28;20611;-93
2023/09/05 04:31:38;;;;;;;0.20;0.20;;;;;;;21.53;71.42;101666.94;4942207;28;20057;-93
2023/09/05 04:34:04;;;;;;;0.20;0.20;;;;;;;21.38;70.95;101669.00;4959115;28;20511;-91
2023/09/05 04:36:29;;;;;;;0.17;0.17;;;;;;;21.29;72.16;101669.69;4951458;28;20035;-93
2023/09/05 04:38:55;;;;;;;0.20;0.20;;;;;;;21.16;71.66;101668.94;4941542;28;20082;-91
2023/09/05 04:41:20;;;;;;;0.20;0.20;;;;;;;21.03;72.81;101674.28;4958465;28;20043;-91
2023/09/05 04:43:47;;;;;;;0.20;0.20;;;;;;;20.97;72.66;101679.19;4942568;28;20035;-94
2023/09/05 04:46:13;;;;;;;0.10;0.10;;;;;;;20.76;73.13;101666.72;4950497;28;20054;-92
2023/09/05 04:48:38;;;;;;;0.20;0.20;;;;;;;20.57;74.32;101683.03;4958592;28;20512;-92
2023/09/05 04:51:04;;;;;;;0.20;0.20;;;;;;;20.68;76.71;101687.50;4939719;28;20034;-88
2023/09/05 04:53:30;;;;;;;0.10;0.10;;;;;;;20.81;74.20;101661.94;4954611;28;20481;-90
2023/09/05 04:55:58;;;;;;;0.20;0.20;;;;;;;21.14;73.64;101684.03;4955776;28;20031;-91
2023/09/05 04:58:24;;;;;;;0.20;0.20;;;;;;;21.58;71.63;101685.00;4958930;28;20031;-89
2023/09/05 05:00:49;;;;;;;0.20;0.20;;;;;;;22.14;69.72;101687.59;4973820;28;20480;-91
2023/09/05 05:03:15;;;;;;;0.20;0.20;;;;;;;22.36;67.85;101690.16;4941685;28;20039;-92
2023/09/05 05:05:40;;;;;;;0.20;0.20;;;;;;;22.49;66.64;101677.63;4956220;28;20062;-93
2023/09/05 05:08:06;;;;;;;0.20;0.20;;;;;;;22.19;66.76;101656.41;4961590;28;20042;-93
2023/09/05 05:10:37;;;;;;;0.20;0.20;;;;;;;22.64;66.02;101693.16;4963487;28;20023;-92
2023/09/05 05:13:03;;;;;;;0.20;0.20;;;;;;;22.75;65.67;101687.81;4983577;28;20117;-91
2023/09/05 05:15:28;;;;;;;0.10;0.10;;;;;;;22.86;65.08;101685.16;4954999;28;20038;-87
2023/09/05 05:17:54;;;;;;;0.13;0.13;;;;;;;23.03;63.41;101700.41;4972274;28;20074;-89
2023/09/05 05:20:19;;;;;;;0.20;0.20;;;;;;;22.45;66.16;101705.22;4956147;28;20057;-92
2023/09/05 05:22:45;;;;;;;0.20;0.20;;;;;;;21.95;67.87;101691.69;4964130;28;20039;-87
2023/09/05 05:25:10;;;;;;;0.20;0.20;;;;;;;21.89;69.39;101704.50;4966622;28;20030;-90
2023/09/05 05:27:35;;;;;;;0.10;0.10;;;;;;;21.73;70.19;101707.53;4957404;28;20038;-92
2023/09/05 05:30:02;;;;;;;0.20;0.20;;;;;;;21.67;70.13;101715.91;4977857;28;20425;-93
2023/09/05 05:32:27;;;;;;;0.20;0.20;;;;;;;21.57;70.99;101704.41;4942936;28;20125;-89
2023/09/05 05:34:54;;;;;;;0.10;0.10;;;;;;;21.83;70.93;101705.84;4945168;29;20410;-91
2023/09/05 05:37:19;;;;;;;0.20;0.20;;;;;;;22.23;68.62;101686.84;4955667;28;20548;-89
2023/09/05 05:39:45;;;;;;;0.20;0.20;;;;;;;22.59;67.01;101694.34;4955252;28;20031;-90
2023/09/05 05:42:10;;;;;;;0.20;0.20;;;;;;;22.85;65.04;101691.41;4955012;28;20429;-90
2023/09/05 05:44:36;;;;;;;0.20;0.20;;;;;;;23.13;64.01;101700.47;4978819;28;20033;-89
2023/09/05 05:47:03;;;;;;;0.20;0.20;;;;;;;23.18;64.37;101706.16;4931501;28;20525;-88
2023/09/05 05:49:28;;;;;;;0.20;0.20;;;;;;;23.08;64.54;101703.47;4950500;28;20498;-87
2023/09/05 05:51:57;;;;;;;0.20;0.20;;;;;;;22.98;64.10;101670.91;4962259;28;20030;-89
2023/09/05 05:54:22;;;;;;;0.20;0.20;;;;;;;22.87;64.80;101692.09;4961042;28;20035;-89
2023/09/05 05:56:50;;;;;;;0.20;0.20;;;;;;;22.92;65.06;101676.72;4959767;28;20028;-89
2023/09/05 05:59:15;;;;;;;0.20;0.20;;;;;;;23.34;63.47;101689.88;4952505;28;20412;-93
2023/09/05 06:01:41;;;;;;;0.20;0.20;;;;;;;23.33;63.53;101693.47;4959931;28;20563;-93
2023/09/05 06:04:06;;;;;;;0.20;0.20;;;;;;;23.54;62.80;101681.06;4960799;28;20027;-90
2023/09/05 06:06:32;;;;;;;0.20;0.20;;;;;;;23.63;63.16;101697.94;4954286;28;20030;-86
2023/09/05 06:08:57;;;;;;;0.20;0.20;;;;;;;23.61;62.62;101684.88;4969943;28;20050;-87
2023/09/05 06:11:23;;;;;;;0.20;0.20;;;;;;;23.61;62.87;101695.44;4960291;28;20513;-89
2023/09/05 06:13:51;;;;;;;0.20;0.20;;;;;;;23.77;61.95;101689.63;4969264;28;20034;-92
2023/09/05 06:16:17;;;;;;;0.15;0.15;;;;;;;23.77;62.53;101699.38;4954603;28;20033;-87
2023/09/05 06:18:43;;;;;;;0.20;0.20;;;;;;;23.62;62.24;101668.06;4978888;28;20432;-89
2023/09/05 06:21:08;;;;;;;0.10;0.10;;;;;;;23.88;61.95;101704.53;4950222;29;20034;-86
2023/09/05 06:23:35;;;;;;;0.20;0.20;;;;;;;23.85;62.06;101704.81;4956630;28;20416;-87
2023/09/05 06:26:00;;;;;;;0.20;0.20;;;;;;;23.59;62.71;101688.59;4962670;28;20035;-91
2023/09/05 06:28:26;;;;;;;0.20;0.20;;;;;;;23.63;62.53;101703.22;4954656;28;20483;-90
2023/09/05 06:30:58;;;;;;;0.20;0.20;;;;;;;23.51;62.34;101696.34;4960322;28;20040;-92
2023/09/05 06:33:24;;;;;;;0.20;0.20;;;;;;;23.52;62.60;101704.13;4943033;28;20031;-94
2023/09/05 06:35:49;;;;;;;0.20;0.20;;;;;;;23.40;62.25;101692.81;4971485;28;20045;-93
2023/09/05 06:38:15;;;;;;;0.20;0.20;;;;;;;23.19;63.12;101705.19;4981737;28;20039;-92
2023/09/05 06:40:40;;;;;;;0.13;0.13;;;;;;;22.94;63.73;101689.78;4957580;28;20026;-88
2023/09/05 06:43:08;;;;;;;0.20;0.20;;;;;;;23.04;62.56;101707.34;4955867;28;20039;-87
2023/09/05 06:45:34;;;;;;;0.20;0.20;;;;;;;23.22;63.09;101701.47;4937849;28;20051;-85
2023/09/05 06:47:59;;;;;;;0.20;0.20;;;;;;;23.36;62.66;101698.47;4973948;28;20527;-86
2023/09/05 06:50:25;;;;;;;0.17;0.17;;;;;;;23.62;61.89;101699.75;4986207;28;20034;-92
2023/09/05 06:52:50;;;;;;;0.20;0.20;;;;;;;23.26;61.67;101702.88;4971166;28;20033;-93
2023/09/05 06:55:16;;;;;;;0.20;0.20;;;;;;;22.95;64.41;101694.94;4984870;28;20499;-91
2023/09/05 06:57:41;;;;;;;0.20;0.20;;;;;;;23.23;61.53;101688.16;4983275;28;20049;-94
2023/09/05 07:00:07;;;;;;;0.20;0.20;;;;;;;23.05;63.54;101701.09;4959294;28;20034;-86
2023/09/05 07:02:33;;;;;;;0.20;0.20;;;;;;;22.80;63.10;101696.19;4981366;28;20034;-89
2023/09/05 07:04:59;;;;;;;0.20;0.20;;;;;;;22.90;63.09;101676.00;4960940;28;20097;-90
2023/09/05 07:07:25;;;;;;;0.20;0.20;;;;;;;23.44;62.33;101711.88;4984112;28;20031;-88
2023/09/05 07:09:51;;;;;;;0.20;0.20;;;;;;;23.14;61.54;101710.88;4955491;28;20135;-86
2023/09/05 07:12:16;;;;;;;0.20;0.20;;;;;;;23.00;62.12;101697.16;4972513;28;20031;-91
2023/09/05 07:14:45;;;;;;;0.20;0.20;;;;;;;22.85;62.91;101694.88;4972594;28;20031;-92
2023/09/05 07:17:11;;;;;;;0.20;0.20;;;;;;;22.61;63.02;101703.00;4978118;28;20398;-92
2023/09/05 07:19:37;;;;;;;0.20;0.20;;;;;;;22.59;64.18;101712.81;4973189;28;20101;-91
2023/09/05 07:22:03;;;;;;;0.20;0.20;;;;;;;22.77;64.82;101707.00;4978441;28;20031;-87
2023/09/05 07:24:29;;;;;;;0.20;0.20;;;;;;;22.78;65.03;101703.38;4957691;28;20093;-93
2023/09/05 07:26:54;;;;;;;0.20;0.20;;;;;;;23.19;63.38;101708.66;4979813;28;20038;-92
2023/09/05 07:29:20;;;;;;;0.20;0.20;;;;;;;23.13;62.17;101711.84;4971124;28;20035;-92
2023/09/05 07:31:46;;;;;;;0.20;0.20;;;;;;;23.01;62.67;101704.97;4974624;28;20456;-93
2023/09/05 07:34:12;;;;;;;0.15;0.15;;;;;;;23.24;61.99;101710.09;4988673;28;20053;-91
2023/09/05 07:36:40;;;;;;;0.20;0.20;;;;;;;23.27;59.69;101704.56;4941815;28;20073;-91
2023/09/05 07:39:06;;;;;;;0.20;0.20;;;;;;;23.51;59.95;101720.94;4974248;28;20946;-91
2023/09/05 07:41:34;;;;;;;0.20;0.20;;;;;;;23.46;58.95;101709.94;4971850;28;20042;-89
2023/09/05 07:44:00;;;;;;;0.20;0.20;;;;;;;23.45;54.05;101718.81;4965182;28;20531;-91
2023/09/05 07:46:25;;;;;;;0.20;0.20;;;;;;;23.59;56.63;101729.03;4960684;28;20047;-88
2023/09/05 07:48:52;;;;;;;0.20;0.20;;;;;;;23.65;55.04;101714.50;4945654;28;20094;-93
2023/09/05 07:51:18;;;;;;;0.20;0.20;;;;;;;23.79;53.70;101737.03;4985927;28;20039;-94
2023/09/05 07:54:04;;;;;;;0.15;0.15;;;;;;;23.70;53.16;101730.78;4956660;28;20106;-88
2023/09/05 07:56:30;;;;;;;0.20;0.20;;;;;;;23.56;52.37;101716.09;4970868;28;20083;-90
2023/09/05 07:58:56;;;;;;;0.20;0.20;;;;;;;23.43;53.07;101724.25;4955648;28;20432;-90
2023/09/05 08:01:21;;;;;;;0.20;0.20;;;;;;;23.60;53.27;101736.03;4941282;28;20041;-92
2023/09/05 08:03:50;;;;;;;0.20;0.20;;;;;;;23.62;53.94;101725.31;4957295;28;20035;-90
2023/09/05 08:06:16;;;;;;;0.20;0.20;;;;;;;23.56;53.04;101728.47;4940108;28;20073;-88
2023/09/05 08:08:41;;;;;;;0.20;0.20;;;;;;;23.52;53.98;101719.97;4964219;28;20031;-89
2023/09/05 08:11:07;;;;;;;0.20;0.20;;;;;;;23.73;53.82;101749.00;4975909;28;20452;-90
2023/09/05 08:13:33;;;;;;;0.20;0.20;;;;;;;23.77;53.95;101744.28;4956243;28;20023;-91
2023/09/05 08:16:00;;;;;;;0.20;0.20;;;;;;;23.72;52.82;101734.97;4938478;29;20089;-89
2023/09/05 08:18:28;;;;;;;0.20;0.20;;;;;;;23.92;52.37;101750.88;4983245;28;20101;-88
2023/09/05 08:20:56;;;;;;;0.20;0.20;;;;;;;23.99;52.88;101759.91;4973907;28;20058;-91
2023/09/05 08:23:22;;;;;;;0.13;0.13;;;;;;;23.96;53.01;101728.47;4968720;28;20041;-87
2023/09/05 08:25:51;;;;;;;0.20;0.20;;;;;;;24.14;52.25;101758.59;4955828;28;20877;-87
2023/09/05 08:28:19;;;;;;;0.20;0.20;;;;;;;24.12;52.63;101757.06;4957669;28;20022;-91
2023/09/05 08:30:44;;;;;;;0.20;0.20;;;;;;;24.29;53.39;101767.81;4959581;28;20038;-89
2023/09/05 08:33:10;;;;;;;0.20;0.20;;;;;;;24.51;51.33;101755.34;4956317;28;20070;-92
2023/09/05 08:35:37;;;;;;;0.20;0.20;;;;;;;24.57;50.88;101760.88;4963549;28;20033;-88
2023/09/05 08:38:04;;;;;;;0.20;0.20;;;;;;;24.51;49.28;101756.16;4991127;28;20041;-91
2023/09/05 08:40:33;;;;;;;0.20;0.20;;;;;;;24.72;49.44;101752.56;4960718;28;20842;-87
2023/09/05 08:42:58;;;;;;;0.20;0.20;;;;;;;24.81;48.94;101763.13;4990509;28;20026;-88
2023/09/05 08:45:24;;;;;;;0.20;0.20;;;;;;;24.92;47.69;101753.38;4948027;28;20560;-93
2023/09/05 08:47:51;;;;;;;0.20;0.20;;;;;;;25.14;47.08;101763.69;4965534;28;20031;-91
2023/09/05 08:50:17;;;;;;;0.20;0.20;;;;;;;25.13;47.28;101767.31;4969806;28;20041;-91
2023/09/05 08:52:42;;;;;;;0.20;0.20;;;;;;;25.10;46.75;101759.66;4956692;28;20102;-92
2023/09/05 08:55:10;;;;;;;0.20;0.20;;;;;;;25.01;46.07;101744.59;4949882;28;20045;-92
2023/09/05 08:57:38;;;;;;;0.20;0.20;;;;;;;25.17;44.99;101737.78;4983386;28;20123;-93
2023/09/05 09:00:08;;;;;;;0.20;0.20;;;;;;;25.31;45.03;101760.31;4961306;28;20031;-93
2023/09/05 09:02:37;;;;;;;0.20;0.20;;;;;;;25.31;45.82;101744.41;4971607;28;20023;-92
2023/09/05 09:05:02;;;;;;;0.20;0.20;;;;;;;25.42;46.27;101746.88;4940402;28;20070;-89
2023/09/05 09:07:28;;;;;;;0.20;0.20;;;;;;;25.65;46.21;101741.22;4972848;28;20031;-91
2023/09/05 09:09:57;;;;;;;0.20;0.20;;;;;;;25.74;45.51;101745.66;4973576;28;20041;-93
2023/09/05 09:12:32;;;;;;;0.20;0.20;;;;;;;25.52;44.86;101711.56;4979399;28;20106;-92
2023/09/05 09:15:11;;;;;;;0.20;0.20;;;;;;;25.97;44.17;101752.25;4958094;28;20080;-89
2023/09/05 09:17:40;;;;;;;0.20;0.20;;;;;;;26.14;43.53;101752.41;4956330;28;20118;-90
2023/09/05 09:20:06;;;;;;;0.20;0.20;;;;;;;26.10;41.89;101733.34;4941043;28;20038;-91
2023/09/05 09:22:31;;;;;;;0.20;0.20;;;;;;;26.09;41.93;101744.09;4959760;28;20065;-91
2023/09/05 09:24:57;;;;;;;0.20;0.20;;;;;;;26.10;41.76;101738.63;4947862;28;20029;-89
2023/09/05 09:27:23;;;;;;;0.20;0.20;;;;;;;25.99;41.15;101731.72;4979336;28;20047;-94
2023/09/05 09:29:55;;;;;;;0.20;0.20;;;;;;;26.00;41.56;101716.66;4976815;28;20472;-87
2023/09/05 09:32:22;;;;;;;;;;;;;;;26.30;43.38;101745.47;4975032;28;20493;-86
2023/09/05 09:34:48;;;;;;;0.20;0.20;;;;;;;26.21;42.37;101711.06;4969699;28;19914;-88
2023/09/05 09:37:24;;;;;;;0.20;0.20;;;;;;;26.45;43.76;101737.88;4969460;28;20033;-90
2023/09/05 09:39:50;;;;;;;0.20;0.20;;;;;;;26.72;43.11;101730.78;4964097;28;20034;-88
2023/09/05 09:42:22;;;;;;;0.20;0.20;;;;;;;26.92;42.98;101744.72;4983105;28;20038;-89
2023/09/05 09:44:48;;;;;;;0.17;0.17;;;;;;;26.96;42.71;101728.34;4981898;28;20038;-87
2023/09/05 09:47:13;;;;;;;0.20;0.20;;;;;;;27.17;42.03;101735.13;4960396;28;20137;-91
2023/09/05 09:49:41;;;;;;;0.20;0.20;;;;;;;27.32;42.30;101738.88;4959940;28;20039;-92
2023/09/05 09:52:07;;;;;;;0.20;0.20;;;;;;;27.40;41.33;101731.78;4956388;28;20039;-94
2023/09/05 09:54:39;;;;;;;0.20;0.20;;;;;;;27.33;40.97;101719.28;4949686;28;20111;-88
2023/09/05 09:57:04;;;;;;;;;;;;;;;27.35;41.44;101741.22;4962825;28;20026;-89
2023/09/05 09:59:35;;;;;;;0.20;0.20;;;;;;;27.33;41.38;101741.34;4970940;28;20403;-89
2023/09/05 10:02:03;;;;;;;0.20;0.20;;;;;;;27.42;41.14;101713.00;4981054;28;20046;-87
2023/09/05 10:04:28;;;;;;;0.20;0.20;;;;;;;27.32;40.67;101718.44;4977185;28;20022;-93
2023/09/05 10:06:54;;;;;;;0.20;0.20;;;;;;;27.26;41.68;101715.59;4971411;28;20037;-92
2023/09/05 10:09:20;;;;;;;0.20;0.20;;;;;;;27.42;41.74;101713.84;4953835;28;20043;-90
2023/09/05 10:11:47;;;;;;;0.20;0.20;;;;;;;27.55;40.99;101713.44;4950009;28;20118;-86
2023/09/05 10:14:12;;;;;;;0.20;0.20;;;;;;;27.60;40.28;101687.19;4980621;28;20455;-88
2023/09/05 10:16:38;;;;;;;0.20;0.20;;;;;;;27.74;40.42;101714.19;4960603;28;20575;-86
2023/09/05 10:19:03;;;;;;;0.20;0.20;;;;;;;27.78;39.65;101688.94;4961282;28;20527;-86
2023/09/05 10:21:29;;;;;;;0.20;0.20;;;;;;;28.00;39.75;101693.66;4964004;28;20031;-86
2023/09/05 10:23:54;;;;;;;0.20;0.20;;;;;;;28.17;38.86;101694.50;4968620;28;20041;-91
2023/09/05 10:26:20;;;;;;;0.20;0.20;;;;;;;28.36;39.35;101704.03;4951800;28;20033;-89
2023/09/05 10:28:46;;;;;;;0.20;0.20;;;;;;;28.46;38.67;101697.56;4953765;28;20069;-87
2023/09/05 10:31:14;;;;;;;0.20;0.20;;;;;;;28.34;39.29;101687.41;4973833;28;20042;-86
2023/09/05 10:33:43;;;;;;;0.20;0.20;;;;;;;28.60;38.06;101706.69;4961433;28;20129;-89
2023/09/05 10:36:45;;;;;;;0.20;0.20;;;;;;;28.52;37.47;101712.06;4978177;28;20088;-88
2023/09/05 10:39:37;;;;;;;0.20;0.20;;;;;;;28.16;38.89;101703.50;4965473;28;20505;-90
2023/09/05 10:42:02;;;;;;;0.20;0.20;;;;;;;27.91;38.64;101682.16;4950219;28;20129;-90
2023/09/05 10:44:29;;;;;;;0.20;0.20;;;;;;;27.97;38.25;101662.91;4970326;28;20571;-88
2023/09/05 10:46:55;;;;;;;0.20;0.20;;;;;;;28.22;37.43;101695.69;4959536;28;20054;-93
2023/09/05 10:49:21;;;;;;;0.20;0.20;;;;;;;28.14;35.49;101682.38;4961648;28;20043;-89
2023/09/05 10:52:18;;;;;;;0.20;0.20;;;;;;;28.34;34.91;101688.25;4965524;28;20043;-88
2023/09/05 10:54:43;;;;;;;0.20;0.20;;;;;;;28.19;36.16;101677.38;4983672;28;20026;-90
2023/09/05 10:57:37;;;;;;;0.20;0.20;;;;;;;28.10;37.67;101691.66;4967862;28;20405;-89
2023/09/05 11:00:15;;;;;;;0.20;0.20;;;;;;;28.33;37.43;101683.09;4953999;28;20113;-88
2023/09/05 11:02:41;;;;;;;0.20;0.20;;;;;;;28.35;37.33;101689.06;4966013;28;20030;-90
2023/09/05 11:05:11;;;;;;;0.20;0.20;;;;;;;28.01;36.70;101660.72;4958635;28;20086;-86
2023/09/05 11:07:42;;;;;;;0.20;0.20;;;;;;;28.18;37.17;101677.56;4953565;28;20090;-91
2023/09/05 11:10:11;;;;;;;0.20;0.20;;;;;;;27.97;36.48;101667.38;4971764;28;20039;-91
2023/09/05 11:12:38;;;;;;;0.20;0.20;;;;;;;27.67;37.08;101652.84;4957746;28;20485;-92
2023/09/05 11:15:05;;;;;;;0.20;0.20;;;;;;;27.65;36.49;101655.69;4953677;28;20039;-92
2023/09/05 11:17:30;;;;;;;0.20;0.20;;;;;;;27.61;37.09;101659.59;4977993;28;20030;-88
2023/09/05 11:19:56;;;;;;;0.20;0.20;;;;;;;27.65;36.79;101666.31;4947766;28;20492;-90
2023/09/05 11:22:22;;;;;;;0.20;0.20;;;;;;;27.84;36.68;101667.88;4954252;28;20031;-91
2023/09/05 11:24:49;;;;;;;0.20;0.20;;;;;;;28.03;37.15;101658.75;4973199;28;20077;-90
2023/09/05 11:27:19;;;;;;;0.20;0.20;;;;;;;28.19;36.95;101674.72;4978459;28;20089;-92
2023/09/05 11:29:45;;;;;;;0.20;0.20;;;;;;;28.46;36.76;101664.78;4972167;28;20089;-90